sensor_id;sensor_type;location;lat;lon;timestamp;pressure;altitude;pressure_sealevel;temperature;humidity
71805;BME280;59654;52.216;5.616;2023-01-31T00:00:13;102195.47;;;1.90;87.45
71805;BME280;59654;52.216;5.616;2023-01-31T00:00:44;102196.31;;;1.89;88.31
71805;BME280;59654;52.216;5.616;2023-01-31T00:01:24;102194.53;;;1.88;87.93
71805;BME280;59654;52.216;5.616;2023-01-31T00:01:56;102195.41;;;1.85;87.94
71805;BME280;59654;52.216;5.616;2023-01-31T00:02:29;102189.28;;;1.86;87.80
71805;BME280;59654;52.216;5.616;2023-01-31T00:03:00;102196.28;;;1.87;88.47
71805;BME280;59654;52.216;5.616;2023-01-31T00:03:31;102194.50;;;1.85;88.57
71805;BME280;59654;52.216;5.616;2023-01-31T00:04:07;102191.03;;;1.87;88.61
71805;BME280;59654;52.216;5.616;2023-01-31T00:04:40;102200.66;;;1.85;87.72
71805;BME280;59654;52.216;5.616;2023-01-31T00:05:11;102195.41;;;1.85;87.67
71805;BME280;59654;52.216;5.616;2023-01-31T00:05:42;102190.06;;;1.82;88.25
71805;BME280;59654;52.216;5.616;2023-01-31T00:06:46;102196.22;;;1.83;88.67
71805;BME280;59654;52.216;5.616;2023-01-31T00:07:20;102183.06;;;1.83;88.13
71805;BME280;59654;52.216;5.616;2023-01-31T00:07:51;102190.13;;;1.85;88.29
71805;BME280;59654;52.216;5.616;2023-01-31T00:08:22;102184.88;;;1.85;88.84
71805;BME280;59654;52.216;5.616;2023-01-31T00:08:54;102193.63;;;1.84;88.38
71805;BME280;59654;52.216;5.616;2023-01-31T00:09:25;102186.63;;;1.85;88.58
71805;BME280;59654;52.216;5.616;2023-01-31T00:09:56;102191.91;;;1.88;88.82
71805;BME280;59654;52.216;5.616;2023-01-31T00:10:27;102190.16;;;1.88;88.63
71805;BME280;59654;52.216;5.616;2023-01-31T00:10:58;102190.19;;;1.90;88.87
71805;BME280;59654;52.216;5.616;2023-01-31T00:11:30;102198.97;;;1.90;89.04
71805;BME280;59654;52.216;5.616;2023-01-31T00:12:01;102203.38;;;1.91;88.98
71805;BME280;59654;52.216;5.616;2023-01-31T00:12:32;102194.63;;;1.92;88.76
71805;BME280;59654;52.216;5.616;2023-01-31T00:13:02;102193.78;;;1.93;89.01
71805;BME280;59654;52.216;5.616;2023-01-31T00:13:34;102192.94;;;1.95;88.87
71805;BME280;59654;52.216;5.616;2023-01-31T00:14:06;102189.44;;;1.96;89.10
71805;BME280;59654;52.216;5.616;2023-01-31T00:14:38;102188.59;;;1.97;88.72
71805;BME280;59654;52.216;5.616;2023-01-31T00:15:08;102191.16;;;1.93;88.22
71805;BME280;59654;52.216;5.616;2023-01-31T00:15:39;102191.16;;;1.93;88.43
71805;BME280;59654;52.216;5.616;2023-01-31T00:16:13;102184.16;;;1.94;88.19
71805;BME280;59654;52.216;5.616;2023-01-31T00:16:44;102187.66;;;1.95;88.13
71805;BME280;59654;52.216;5.616;2023-01-31T00:17:15;102185.91;;;1.93;88.84
71805;BME280;59654;52.216;5.616;2023-01-31T00:17:45;102188.53;;;1.93;88.71
71805;BME280;59654;52.216;5.616;2023-01-31T00:18:16;102182.41;;;1.95;89.18
71805;BME280;59654;52.216;5.616;2023-01-31T00:18:48;102189.44;;;1.96;89.42
71805;BME280;59654;52.216;5.616;2023-01-31T00:19:18;102183.28;;;1.95;88.39
71805;BME280;59654;52.216;5.616;2023-01-31T00:19:49;102178.91;;;1.96;88.76
71805;BME280;59654;52.216;5.616;2023-01-31T00:20:20;102172.78;;;1.95;89.12
71805;BME280;59654;52.216;5.616;2023-01-31T00:20:51;102178.88;;;1.94;88.87
71805;BME280;59654;52.216;5.616;2023-01-31T00:21:24;102173.66;;;1.96;89.04
71805;BME280;59654;52.216;5.616;2023-01-31T00:21:56;102180.69;;;1.97;88.69
71805;BME280;59654;52.216;5.616;2023-01-31T00:22:27;102177.22;;;1.98;88.83
71805;BME280;59654;52.216;5.616;2023-01-31T00:22:58;102162.31;;;1.98;89.27
71805;BME280;59654;52.216;5.616;2023-01-31T00:23:29;102162.31;;;1.98;89.49
71805;BME280;59654;52.216;5.616;2023-01-31T00:24:00;102163.19;;;1.99;89.38
71805;BME280;59654;52.216;5.616;2023-01-31T00:24:31;102161.47;;;1.99;89.51
71805;BME280;59654;52.216;5.616;2023-01-31T00:25:02;102156.19;;;1.99;89.31
71805;BME280;59654;52.216;5.616;2023-01-31T00:25:33;102162.38;;;2.01;89.13
71805;BME280;59654;52.216;5.616;2023-01-31T00:26:45;102162.28;;;1.97;88.09
71805;BME280;59654;52.216;5.616;2023-01-31T00:27:17;102164.00;;;1.95;88.49
71805;BME280;59654;52.216;5.616;2023-01-31T00:27:49;102162.19;;;1.92;88.59
71805;BME280;59654;52.216;5.616;2023-01-31T00:28:19;102164.06;;;1.98;88.69
71805;BME280;59654;52.216;5.616;2023-01-31T00:28:52;102162.28;;;1.97;88.20
71805;BME280;59654;52.216;5.616;2023-01-31T00:29:24;102159.66;;;1.97;87.92
71805;BME280;59654;52.216;5.616;2023-01-31T00:29:55;102162.25;;;1.95;88.36
71805;BME280;59654;52.216;5.616;2023-01-31T00:30:26;102156.06;;;1.93;87.69
71805;BME280;59654;52.216;5.616;2023-01-31T00:30:57;102148.19;;;1.93;87.86
71805;BME280;59654;52.216;5.616;2023-01-31T00:31:30;102146.41;;;1.92;88.03
71805;BME280;59654;52.216;5.616;2023-01-31T00:32:02;102155.19;;;1.92;87.67
71805;BME280;59654;52.216;5.616;2023-01-31T00:32:33;102152.56;;;1.92;87.82
71805;BME280;59654;52.216;5.616;2023-01-31T00:33:04;102149.88;;;1.89;87.74
71805;BME280;59654;52.216;5.616;2023-01-31T00:33:36;102151.59;;;1.87;87.61
71805;BME280;59654;52.216;5.616;2023-01-31T00:34:10;102149.78;;;1.83;87.75
71805;BME280;59654;52.216;5.616;2023-01-31T00:34:40;102149.78;;;1.83;88.49
71805;BME280;59654;52.216;5.616;2023-01-31T00:35:11;102155.88;;;1.82;87.86
71805;BME280;59654;52.216;5.616;2023-01-31T00:35:42;102149.72;;;1.80;88.66
71805;BME280;59654;52.216;5.616;2023-01-31T00:36:19;102153.19;;;1.79;88.19
71805;BME280;59654;52.216;5.616;2023-01-31T00:36:51;102152.28;;;1.77;88.22
71805;BME280;59654;52.216;5.616;2023-01-31T00:37:22;102147.03;;;1.77;88.01
71805;BME280;59654;52.216;5.616;2023-01-31T00:37:53;102147.84;;;1.75;88.63
71805;BME280;59654;52.216;5.616;2023-01-31T00:38:23;102148.72;;;1.75;88.94
71805;BME280;59654;52.216;5.616;2023-01-31T00:38:58;102148.66;;;1.72;88.83
71805;BME280;59654;52.216;5.616;2023-01-31T00:39:30;102148.66;;;1.72;88.71
71805;BME280;59654;52.216;5.616;2023-01-31T00:40:00;102145.16;;;1.72;89.41
71805;BME280;59654;52.216;5.616;2023-01-31T00:40:31;102140.75;;;1.69;89.22
71805;BME280;59654;52.216;5.616;2023-01-31T00:41:03;102135.50;;;1.69;88.99
71805;BME280;59654;52.216;5.616;2023-01-31T00:41:36;102139.00;;;1.71;89.13
71805;BME280;59654;52.216;5.616;2023-01-31T00:42:08;102146.88;;;1.68;89.06
71805;BME280;59654;52.216;5.616;2023-01-31T00:42:39;102146.81;;;1.67;89.03
71805;BME280;59654;52.216;5.616;2023-01-31T00:43:09;102145.06;;;1.66;89.33
71805;BME280;59654;52.216;5.616;2023-01-31T00:43:40;102147.69;;;1.66;89.42
71805;BME280;59654;52.216;5.616;2023-01-31T00:44:12;102145.88;;;1.63;89.17
71805;BME280;59654;52.216;5.616;2023-01-31T00:44:43;102146.72;;;1.62;89.28
71805;BME280;59654;52.216;5.616;2023-01-31T00:45:14;102153.72;;;1.62;89.46
71805;BME280;59654;52.216;5.616;2023-01-31T00:45:45;102147.59;;;1.61;89.41
71805;BME280;59654;52.216;5.616;2023-01-31T00:46:17;102149.31;;;1.61;89.47
71805;BME280;59654;52.216;5.616;2023-01-31T00:46:51;102144.94;;;1.60;89.47
71805;BME280;59654;52.216;5.616;2023-01-31T00:47:22;102149.25;;;1.57;89.43
71805;BME280;59654;52.216;5.616;2023-01-31T00:47:52;102136.97;;;1.56;89.47
71805;BME280;59654;52.216;5.616;2023-01-31T00:48:24;102141.38;;;1.57;89.86
71805;BME280;59654;52.216;5.616;2023-01-31T00:48:55;102137.88;;;1.57;89.03
71805;BME280;59654;52.216;5.616;2023-01-31T00:49:26;102131.69;;;1.53;89.61
71805;BME280;59654;52.216;5.616;2023-01-31T00:49:57;102143.97;;;1.54;89.58
71805;BME280;59654;52.216;5.616;2023-01-31T00:50:28;102139.56;;;1.55;90.04
71805;BME280;59654;52.216;5.616;2023-01-31T00:50:58;102137.88;;;1.57;90.77
71805;BME280;59654;52.216;5.616;2023-01-31T00:51:29;102139.63;;;1.58;89.95
71805;BME280;59654;52.216;5.616;2023-01-31T00:52:00;102136.97;;;1.56;89.83
71805;BME280;59654;52.216;5.616;2023-01-31T00:52:31;102137.09;;;1.63;89.85
71805;BME280;59654;52.216;5.616;2023-01-31T00:53:03;102135.41;;;1.65;90.54
71805;BME280;59654;52.216;5.616;2023-01-31T00:53:34;102138.94;;;1.67;90.40
71805;BME280;59654;52.216;5.616;2023-01-31T00:54:05;102139.81;;;1.67;90.47
71805;BME280;59654;52.216;5.616;2023-01-31T00:54:35;102133.69;;;1.67;90.35
71805;BME280;59654;52.216;5.616;2023-01-31T00:55:06;102134.56;;;1.67;89.93
71805;BME280;59654;52.216;5.616;2023-01-31T00:55:38;102139.75;;;1.64;90.02
71805;BME280;59654;52.216;5.616;2023-01-31T00:56:15;102144.16;;;1.65;90.16
71805;BME280;59654;52.216;5.616;2023-01-31T00:56:52;102140.69;;;1.66;89.41
71805;BME280;59654;52.216;5.616;2023-01-31T00:57:23;102146.81;;;1.67;90.07
71805;BME280;59654;52.216;5.616;2023-01-31T00:57:54;102145.06;;;1.66;89.71
71805;BME280;59654;52.216;5.616;2023-01-31T00:58:25;102145.03;;;1.64;89.85
71805;BME280;59654;52.216;5.616;2023-01-31T00:58:57;102149.44;;;1.65;89.86
71805;BME280;59654;52.216;5.616;2023-01-31T00:59:28;102147.69;;;1.66;90.18
71805;BME280;59654;52.216;5.616;2023-01-31T00:59:58;102151.19;;;1.66;89.54
71805;BME280;59654;52.216;5.616;2023-01-31T01:00:30;102154.69;;;1.65;90.11
71805;BME280;59654;52.216;5.616;2023-01-31T01:01:06;102150.38;;;1.69;90.02
71805;BME280;59654;52.216;5.616;2023-01-31T01:01:39;102146.88;;;1.68;89.87
71805;BME280;59654;52.216;5.616;2023-01-31T01:02:10;102148.59;;;1.68;89.76
71805;BME280;59654;52.216;5.616;2023-01-31T01:02:40;102153.94;;;1.71;89.66
71805;BME280;59654;52.216;5.616;2023-01-31T01:03:12;102146.88;;;1.68;89.61
71805;BME280;59654;52.216;5.616;2023-01-31T01:03:44;102143.34;;;1.68;89.34
71805;BME280;59654;52.216;5.616;2023-01-31T01:04:15;102144.22;;;1.68;89.56
71805;BME280;59654;52.216;5.616;2023-01-31T01:04:46;102143.34;;;1.68;89.55
71805;BME280;59654;52.216;5.616;2023-01-31T01:05:17;102147.75;;;1.69;89.61
71805;BME280;59654;52.216;5.616;2023-01-31T01:05:49;102130.16;;;1.66;88.74
71805;BME280;59654;52.216;5.616;2023-01-31T01:06:21;102145.00;;;1.63;89.29
71805;BME280;59654;52.216;5.616;2023-01-31T01:06:52;102132.72;;;1.63;89.53
71805;BME280;59654;52.216;5.616;2023-01-31T01:07:23;102133.59;;;1.62;89.02
71805;BME280;59654;52.216;5.616;2023-01-31T01:07:53;102131.84;;;1.63;89.07
71805;BME280;59654;52.216;5.616;2023-01-31T01:08:24;102134.47;;;1.63;89.93
71805;BME280;59654;52.216;5.616;2023-01-31T01:08:56;102137.09;;;1.63;89.47
71805;BME280;59654;52.216;5.616;2023-01-31T01:09:29;102137.94;;;1.60;90.10
71805;BME280;59654;52.216;5.616;2023-01-31T01:10:00;102137.91;;;1.58;89.88
71805;BME280;59654;52.216;5.616;2023-01-31T01:10:33;102135.25;;;1.58;90.23
71805;BME280;59654;52.216;5.616;2023-01-31T01:11:14;102137.03;;;1.60;90.40
71805;BME280;59654;52.216;5.616;2023-01-31T01:11:52;102137.94;;;1.60;90.01
71805;BME280;59654;52.216;5.616;2023-01-31T01:12:23;102137.03;;;1.60;90.06
71805;BME280;59654;52.216;5.616;2023-01-31T01:12:53;102132.66;;;1.60;89.85
71805;BME280;59654;52.216;5.616;2023-01-31T01:13:24;102131.78;;;1.60;90.16
71805;BME280;59654;52.216;5.616;2023-01-31T01:13:57;102129.09;;;1.56;89.81
71805;BME280;59654;52.216;5.616;2023-01-31T01:14:29;102130.88;;;1.57;89.57
71805;BME280;59654;52.216;5.616;2023-01-31T01:15:00;102125.56;;;1.56;89.19
71805;BME280;59654;52.216;5.616;2023-01-31T01:15:31;102123.81;;;1.55;89.07
71805;BME280;59654;52.216;5.616;2023-01-31T01:16:07;102129.06;;;1.53;89.21
71805;BME280;59654;52.216;5.616;2023-01-31T01:16:39;102119.44;;;1.54;89.94
71805;BME280;59654;52.216;5.616;2023-01-31T01:17:11;102124.69;;;1.54;89.50
71805;BME280;59654;52.216;5.616;2023-01-31T01:17:42;102122.94;;;1.54;89.36
71805;BME280;59654;52.216;5.616;2023-01-31T01:18:12;102123.81;;;1.55;89.59
71805;BME280;59654;52.216;5.616;2023-01-31T01:18:43;102128.16;;;1.53;89.30
71805;BME280;59654;52.216;5.616;2023-01-31T01:19:18;102126.44;;;1.53;89.35
71805;BME280;59654;52.216;5.616;2023-01-31T01:19:50;102126.41;;;1.52;89.47
71805;BME280;59654;52.216;5.616;2023-01-31T01:20:22;102119.34;;;1.49;89.63
71805;BME280;59654;52.216;5.616;2023-01-31T01:20:53;102126.41;;;1.52;90.00
71805;BME280;59654;52.216;5.616;2023-01-31T01:21:26;102122.84;;;1.50;89.89
71805;BME280;59654;52.216;5.616;2023-01-31T01:21:58;102126.41;;;1.52;90.11
71805;BME280;59654;52.216;5.616;2023-01-31T01:22:30;102121.09;;;1.50;89.96
71805;BME280;59654;52.216;5.616;2023-01-31T01:23:03;102123.69;;;1.49;90.19
71805;BME280;59654;52.216;5.616;2023-01-31T01:23:36;102118.44;;;1.49;89.31
71805;BME280;59654;52.216;5.616;2023-01-31T01:24:13;102127.13;;;1.45;89.98
71805;BME280;59654;52.216;5.616;2023-01-31T01:24:45;102121.84;;;1.45;90.16
71805;BME280;59654;52.216;5.616;2023-01-31T01:25:16;102131.53;;;1.46;90.01
71805;BME280;59654;52.216;5.616;2023-01-31T01:25:46;102125.41;;;1.47;90.47
71805;BME280;59654;52.216;5.616;2023-01-31T01:26:26;102123.66;;;1.47;90.20
71805;BME280;59654;52.216;5.616;2023-01-31T01:26:58;102128.09;;;1.50;90.04
71805;BME280;59654;52.216;5.616;2023-01-31T01:27:29;102125.47;;;1.50;90.07
71805;BME280;59654;52.216;5.616;2023-01-31T01:28:00;102128.13;;;1.51;90.49
71805;BME280;59654;52.216;5.616;2023-01-31T01:28:33;102122.81;;;1.48;90.16
71805;BME280;59654;52.216;5.616;2023-01-31T01:29:04;102118.44;;;1.49;90.09
71805;BME280;59654;52.216;5.616;2023-01-31T01:29:35;102121.94;;;1.48;90.88
71805;BME280;59654;52.216;5.616;2023-01-31T01:30:07;102117.53;;;1.47;90.72
71805;BME280;59654;52.216;5.616;2023-01-31T01:30:38;102117.56;;;1.48;90.45
71805;BME280;59654;52.216;5.616;2023-01-31T01:31:11;102109.69;;;1.48;90.20
71805;BME280;59654;52.216;5.616;2023-01-31T01:31:45;102109.72;;;1.50;90.73
71805;BME280;59654;52.216;5.616;2023-01-31T01:32:16;102116.66;;;1.48;90.40
71805;BME280;59654;52.216;5.616;2023-01-31T01:32:46;102107.09;;;1.50;90.48
71805;BME280;59654;52.216;5.616;2023-01-31T01:33:18;102117.63;;;1.51;90.19
71805;BME280;59654;52.216;5.616;2023-01-31T01:33:49;102114.97;;;1.50;90.16
71805;BME280;59654;52.216;5.616;2023-01-31T01:34:20;102124.59;;;1.49;90.28
71805;BME280;59654;52.216;5.616;2023-01-31T01:34:50;102121.97;;;1.49;90.02
71805;BME280;59654;52.216;5.616;2023-01-31T01:35:21;102120.22;;;1.50;90.59
71805;BME280;59654;52.216;5.616;2023-01-31T01:35:52;102122.84;;;1.50;90.40
71805;BME280;59654;52.216;5.616;2023-01-31T01:36:24;102118.44;;;1.49;90.16
71805;BME280;59654;52.216;5.616;2023-01-31T01:36:55;102113.19;;;1.49;90.50
71805;BME280;59654;52.216;5.616;2023-01-31T01:37:26;102126.28;;;1.47;89.80
71805;BME280;59654;52.216;5.616;2023-01-31T01:37:57;102116.66;;;1.48;90.22
71805;BME280;59654;52.216;5.616;2023-01-31T01:38:27;102115.78;;;1.47;90.12
71805;BME280;59654;52.216;5.616;2023-01-31T01:38:58;102122.78;;;1.47;89.44
71805;BME280;59654;52.216;5.616;2023-01-31T01:39:29;102121.03;;;1.47;90.17
71805;BME280;59654;52.216;5.616;2023-01-31T01:40:00;102114.91;;;1.47;89.83
71805;BME280;59654;52.216;5.616;2023-01-31T01:40:36;102118.38;;;1.46;90.37
71805;BME280;59654;52.216;5.616;2023-01-31T01:41:09;102117.53;;;1.47;90.41
71805;BME280;59654;52.216;5.616;2023-01-31T01:41:41;102122.78;;;1.47;90.26
71805;BME280;59654;52.216;5.616;2023-01-31T01:42:16;102124.50;;;1.45;89.17
71805;BME280;59654;52.216;5.616;2023-01-31T01:42:48;102125.28;;;1.41;89.32
71805;BME280;59654;52.216;5.616;2023-01-31T01:43:20;102116.56;;;1.43;89.45
71805;BME280;59654;52.216;5.616;2023-01-31T01:43:54;102116.47;;;1.39;90.43
71805;BME280;59654;52.216;5.616;2023-01-31T01:45:21;102122.66;;;1.41;90.91
71805;BME280;59654;52.216;5.616;2023-01-31T01:45:52;102127.91;;;1.41;90.73
71805;BME280;59654;52.216;5.616;2023-01-31T01:46:30;102125.31;;;1.42;91.34
71805;BME280;59654;52.216;5.616;2023-01-31T01:47:03;102125.31;;;1.42;90.90
71805;BME280;59654;52.216;5.616;2023-01-31T01:48:17;102123.56;;;1.43;90.79
71805;BME280;59654;52.216;5.616;2023-01-31T01:48:51;102130.56;;;1.42;91.09
71805;BME280;59654;52.216;5.616;2023-01-31T01:49:36;102130.56;;;1.42;90.88
71805;BME280;59654;52.216;5.616;2023-01-31T01:50:27;102129.69;;;1.42;90.69
71805;BME280;59654;52.216;5.616;2023-01-31T01:51:05;102135.88;;;1.45;90.70
71805;BME280;59654;52.216;5.616;2023-01-31T01:51:38;102133.28;;;1.47;90.98
71805;BME280;59654;52.216;5.616;2023-01-31T01:52:14;102135.03;;;1.46;90.90
71805;BME280;59654;52.216;5.616;2023-01-31T01:53:05;102142.06;;;1.47;90.68
71805;BME280;59654;52.216;5.616;2023-01-31T01:53:43;102136.78;;;1.46;91.23
71805;BME280;59654;52.216;5.616;2023-01-31T01:54:22;102137.69;;;1.48;90.92
71805;BME280;59654;52.216;5.616;2023-01-31T01:55:07;102141.16;;;1.45;90.75
71805;BME280;59654;52.216;5.616;2023-01-31T01:57:00;102140.28;;;1.46;90.53
71805;BME280;59654;52.216;5.616;2023-01-31T01:57:38;102144.63;;;1.44;90.54
71805;BME280;59654;52.216;5.616;2023-01-31T01:58:56;102146.41;;;1.45;91.14
71805;BME280;59654;52.216;5.616;2023-01-31T01:59:47;102142.94;;;1.48;91.40
71805;BME280;59654;52.216;5.616;2023-01-31T02:00:25;102144.75;;;1.50;91.66
71805;BME280;59654;52.216;5.616;2023-01-31T02:00:58;102143.91;;;1.51;91.05
71805;BME280;59654;52.216;5.616;2023-01-31T02:01:34;102151.75;;;1.50;91.97
71805;BME280;59654;52.216;5.616;2023-01-31T02:02:13;102144.75;;;1.50;91.40
71805;BME280;59654;52.216;5.616;2023-01-31T02:02:46;102143.09;;;1.54;91.05
71805;BME280;59654;52.216;5.616;2023-01-31T02:03:18;102146.56;;;1.53;91.80
71805;BME280;59654;52.216;5.616;2023-01-31T02:03:51;102140.44;;;1.52;91.27
71805;BME280;59654;52.216;5.616;2023-01-31T02:04:29;102145.69;;;1.52;92.12
71805;BME280;59654;52.216;5.616;2023-01-31T02:05:04;102143.94;;;1.53;91.73
71805;BME280;59654;52.216;5.616;2023-01-31T02:06:20;102142.19;;;1.55;91.86
71805;BME280;59654;52.216;5.616;2023-01-31T02:06:52;102143.94;;;1.53;91.59
71805;BME280;59654;52.216;5.616;2023-01-31T02:07:24;102137.78;;;1.52;91.35
71805;BME280;59654;52.216;5.616;2023-01-31T02:07:55;102137.75;;;1.51;91.43
71805;BME280;59654;52.216;5.616;2023-01-31T02:08:31;102141.19;;;1.47;91.20
71805;BME280;59654;52.216;5.616;2023-01-31T02:09:07;102140.34;;;1.49;92.00
71805;BME280;59654;52.216;5.616;2023-01-31T02:09:56;102141.22;;;1.48;92.68
71805;BME280;59654;52.216;5.616;2023-01-31T02:10:46;102138.63;;;1.50;92.11
71805;BME280;59654;52.216;5.616;2023-01-31T02:11:24;102140.44;;;1.52;92.65
71805;BME280;59654;52.216;5.616;2023-01-31T02:11:57;102142.19;;;1.55;92.27
71805;BME280;59654;52.216;5.616;2023-01-31T02:12:31;102129.97;;;1.57;92.24
71805;BME280;59654;52.216;5.616;2023-01-31T02:13:04;102137.03;;;1.60;92.73
71805;BME280;59654;52.216;5.616;2023-01-31T02:13:37;102141.47;;;1.62;92.17
71805;BME280;59654;52.216;5.616;2023-01-31T02:14:10;102140.66;;;1.65;92.11
71805;BME280;59654;52.216;5.616;2023-01-31T02:14:45;102135.31;;;1.62;92.04
71805;BME280;59654;52.216;5.616;2023-01-31T02:15:17;102140.69;;;1.66;91.80
71805;BME280;59654;52.216;5.616;2023-01-31T02:15:47;102129.31;;;1.67;91.86
71805;BME280;59654;52.216;5.616;2023-01-31T02:16:18;102138.06;;;1.66;91.45
71805;BME280;59654;52.216;5.616;2023-01-31T02:16:49;102134.59;;;1.69;91.63
71805;BME280;59654;52.216;5.616;2023-01-31T02:17:20;102137.16;;;1.66;91.90
71805;BME280;59654;52.216;5.616;2023-01-31T02:17:52;102132.78;;;1.66;92.36
71805;BME280;59654;52.216;5.616;2023-01-31T02:18:25;102129.31;;;1.67;91.20
71805;BME280;59654;52.216;5.616;2023-01-31T02:18:57;102132.88;;;1.69;91.88
71805;BME280;59654;52.216;5.616;2023-01-31T02:27:52;102129.41;;;1.73;91.96
71805;BME280;59654;52.216;5.616;2023-01-31T02:28:41;102131.25;;;1.77;91.90
71805;BME280;59654;52.216;5.616;2023-01-31T02:33:34;102125.34;;;1.90;91.80
71805;BME280;59654;52.216;5.616;2023-01-31T02:34:19;102113.13;;;1.92;92.00
71805;BME280;59654;52.216;5.616;2023-01-31T02:39:38;102114.19;;;2.02;91.49
71805;BME280;59654;52.216;5.616;2023-01-31T02:43:59;102103.69;;;2.05;91.36
71805;BME280;59654;52.216;5.616;2023-01-31T02:46:46;102098.56;;;2.13;91.94
71805;BME280;59654;52.216;5.616;2023-01-31T02:48:52;102087.25;;;2.17;91.69
71805;BME280;59654;52.216;5.616;2023-01-31T02:50:16;102085.53;;;2.19;91.49
71805;BME280;59654;52.216;5.616;2023-01-31T02:51:41;102082.88;;;2.20;92.67
71805;BME280;59654;52.216;5.616;2023-01-31T02:52:56;102078.53;;;2.22;92.18
71805;BME280;59654;52.216;5.616;2023-01-31T02:54:33;102083.84;;;2.25;92.76
71805;BME280;59654;52.216;5.616;2023-01-31T02:55:35;102077.75;;;2.28;93.08
71805;BME280;59654;52.216;5.616;2023-01-31T02:56:32;102083.84;;;2.25;92.70
71805;BME280;59654;52.216;5.616;2023-01-31T02:57:05;102083.03;;;2.28;92.72
71805;BME280;59654;52.216;5.616;2023-01-31T02:57:37;102083.84;;;2.25;92.96
71805;BME280;59654;52.216;5.616;2023-01-31T02:58:12;102083.06;;;2.30;92.27
71805;BME280;59654;52.216;5.616;2023-01-31T02:59:28;102084.84;;;2.32;92.79
71805;BME280;59654;52.216;5.616;2023-01-31T03:00:02;102086.63;;;2.36;92.10
71805;BME280;59654;52.216;5.616;2023-01-31T03:00:38;102087.53;;;2.37;92.36
71805;BME280;59654;52.216;5.616;2023-01-31T03:01:16;102084.06;;;2.39;92.26
71805;BME280;59654;52.216;5.616;2023-01-31T03:02:01;102084.97;;;2.41;93.00
71805;BME280;59654;52.216;5.616;2023-01-31T03:02:33;102081.47;;;2.42;92.46
71805;BME280;59654;52.216;5.616;2023-01-31T03:03:10;102084.09;;;2.41;92.81
71805;BME280;59654;52.216;5.616;2023-01-31T03:03:46;102084.94;;;2.40;92.54
71805;BME280;59654;52.216;5.616;2023-01-31T03:04:18;102086.75;;;2.42;92.69
71805;BME280;59654;52.216;5.616;2023-01-31T03:04:49;102085.88;;;2.43;93.00
71805;BME280;59654;52.216;5.616;2023-01-31T03:05:20;102083.25;;;2.43;93.03
71805;BME280;59654;52.216;5.616;2023-01-31T03:07:01;102078.84;;;2.42;92.60
71805;BME280;59654;52.216;5.616;2023-01-31T03:07:38;102081.56;;;2.47;93.24
71805;BME280;59654;52.216;5.616;2023-01-31T03:08:11;102083.31;;;2.46;92.97
71805;BME280;59654;52.216;5.616;2023-01-31T03:08:46;102082.44;;;2.47;93.58
71805;BME280;59654;52.216;5.616;2023-01-31T03:09:32;102080.69;;;2.48;93.60
71805;BME280;59654;52.216;5.616;2023-01-31T03:10:26;102077.25;;;2.52;93.75
71805;BME280;59654;52.216;5.616;2023-01-31T03:11:05;102076.41;;;2.56;93.00
71805;BME280;59654;52.216;5.616;2023-01-31T03:13:24;102068.63;;;2.62;93.39
71805;BME280;59654;52.216;5.616;2023-01-31T03:14:18;102062.53;;;2.66;92.64
71805;BME280;59654;52.216;5.616;2023-01-31T03:18:25;102063.38;;;2.63;93.50
71805;BME280;59654;52.216;5.616;2023-01-31T03:19:06;102072.19;;;2.66;93.31
71805;BME280;59654;52.216;5.616;2023-01-31T03:20:36;102064.31;;;2.70;93.42
71805;BME280;59654;52.216;5.616;2023-01-31T03:21:12;102065.22;;;2.72;93.69
71805;BME280;59654;52.216;5.616;2023-01-31T03:21:48;102060.00;;;2.74;93.64
71805;BME280;59654;52.216;5.616;2023-01-31T03:22:29;102067.91;;;2.75;93.44
71805;BME280;59654;52.216;5.616;2023-01-31T03:23:09;102067.03;;;2.75;93.47
71805;BME280;59654;52.216;5.616;2023-01-31T03:23:48;102073.13;;;2.71;93.76
71805;BME280;59654;52.216;5.616;2023-01-31T03:24:23;102072.19;;;2.69;93.16
71805;BME280;59654;52.216;5.616;2023-01-31T03:24:57;102064.28;;;2.66;93.81
71805;BME280;59654;52.216;5.616;2023-01-31T03:25:34;102066.09;;;2.68;94.11
71805;BME280;59654;52.216;5.616;2023-01-31T03:26:09;102062.56;;;2.68;94.25
71805;BME280;59654;52.216;5.616;2023-01-31T03:26:43;102070.44;;;2.66;94.05
71805;BME280;59654;52.216;5.616;2023-01-31T03:27:15;102066.00;;;2.63;94.89
71805;BME280;59654;52.216;5.616;2023-01-31T03:27:51;102063.38;;;2.63;94.60
71805;BME280;59654;52.216;5.616;2023-01-31T03:28:30;102074.81;;;2.66;95.14
71805;BME280;59654;52.216;5.616;2023-01-31T03:29:05;102066.06;;;2.67;94.57
71805;BME280;59654;52.216;5.616;2023-01-31T03:29:39;102068.72;;;2.70;94.44
71805;BME280;59654;52.216;5.616;2023-01-31T03:30:21;102066.94;;;2.69;94.33
71805;BME280;59654;52.216;5.616;2023-01-31T03:31:15;102069.63;;;2.72;94.85
71805;BME280;59654;52.216;5.616;2023-01-31T03:32:21;102068.72;;;2.70;95.25
71805;BME280;59654;52.216;5.616;2023-01-31T03:33:02;102058.19;;;2.68;95.16
71805;BME280;59654;52.216;5.616;2023-01-31T03:33:41;102057.28;;;2.69;95.19
71805;BME280;59654;52.216;5.616;2023-01-31T03:34:16;102053.81;;;2.72;95.33
71805;BME280;59654;52.216;5.616;2023-01-31T03:34:49;102046.81;;;2.72;95.61
71805;BME280;59654;52.216;5.616;2023-01-31T03:35:26;102050.38;;;2.76;95.47
71805;BME280;59654;52.216;5.616;2023-01-31T03:38:26;102042.44;;;2.74;95.28
71805;BME280;59654;52.216;5.616;2023-01-31T03:40:47;102046.03;;;2.79;95.32
71805;BME280;59654;52.216;5.616;2023-01-31T03:41:46;102050.41;;;2.79;95.90
71805;BME280;59654;52.216;5.616;2023-01-31T03:42:27;102043.34;;;2.75;95.57
71805;BME280;59654;52.216;5.616;2023-01-31T03:43:30;102050.47;;;2.82;96.28
71805;BME280;59654;52.216;5.616;2023-01-31T03:44:11;102050.47;;;2.85;96.11
71805;BME280;59654;52.216;5.616;2023-01-31T03:46:00;102050.47;;;2.85;95.81
71805;BME280;59654;52.216;5.616;2023-01-31T03:46:43;102039.94;;;2.85;95.91
71805;BME280;59654;52.216;5.616;2023-01-31T03:47:32;102043.56;;;2.90;95.65
71805;BME280;59654;52.216;5.616;2023-01-31T03:48:08;102042.75;;;2.94;95.49